Menifee, AR

11:28 AM CST on December 27, 2014 (GMT -0600)
Little Rock Air Force Base | Change Station
CLOSE
Current Station
Airport
Location: Little Rock AFB,
Elevation: 312 ft
Nearby Weather Stations

Elev 312 ft 34.92 °N, 92.15 °W | Updated 28 minutes ago

Overcast
Overcast
55 °F
Feels Like 55 °F
N
1
Wind Variable Wind from East

Today
High -- | Low -- °F
--% Chance of Precip.
Yesterday
High -- | Low -- °F
Precip. -- in
7:17 AM 5:05 PM
Waxing Crescent, 38% visible
Pressure 30.13 in
Visibility 4.0 miles
Clouds Overcast 300 ft
Dew Point 54 °F
Humidity 94%
Rainfall 0.41 in
Snow Depth Not available.
UV 1 out of 12
Pollen .70 out of 12
Air Quality Not available.
Flu Activity Not available.
SPECI KLRF 271700Z AUTO 10001KT 4SM BR OVC003 13/12 A3013 RMK AO2 RAB1618E1635DZB1609E1618B1635

More Conditions Fewer Conditions

Pressure 30.13 in
Visibility 4.0 miles
Clouds Overcast 300 ft
Dew Point 54 °F
Humidity 94%
Rainfall 0.41 in
Snow Depth Not available.
UV 1 out of 12
Pollen .70 out of 12
Air Quality Not available.
Flu Activity Not available.
SPECI KLRF 271700Z AUTO 10001KT 4SM BR OVC003 13/12 A3013 RMK AO2 RAB1618E1635DZB1609E1618B1635

More Conditions Fewer Conditions

10-Day Weather Forecast

Almanac

Astronomy

Dec. 27, 2014 Rise Set
Actual Time
Civil Twilight
Nautical Twilight
Astronomical Twilight
Moon
Length of Visible Light
Length of Day
Tomorrow will be .
, % of the Moon is Illuminated

Today's Extremes

State Highs State Lows

Community

WunderPhotos

Upload Photos

1,780,968 photos uploaded!

WunderBlogs® & News

Nearby

Air Quality

  Air Quality AQ Index Pollutant
Not available.

Snow Depth

Station Depth Elevation

Earthquake Activity

City Distance Mag. Time & Date
Minimum magnitude displayed is 2.5.

Coastal Water Temperatures

Place Temperature

Nearby Weather Stations